Airfield :
LOGIN :

Register | Disclaimer

   EN    FR    IT 

 










Legend :    VFR   Marginal VFR   IFR   Intensive IFR   Very Intensive IFR
Visi :
Ceiling :
>= 8 km
>= 3000ft
5 to 8 km
1000 to 3000 ft
1500m to 5 km
500 to 1000 ft
800 to 1500m
200 to 500 ft
< 800m
< 200 ft
Symbols :   Thunderstorms  Fog  Heavy snow  Heavy precipitations  Wind > 20 kt
SIGMETs :     Misc.  Thunderstorms  Icing  Turbulence  Mountain Waves  Volcanic Ashes







- Airport Elevation : 135 ft
- IATA code : EDI
- Download approach charts


EGPH - Edinburgh

CURRENT METAR :
  • 181750Z 26008KT CAVOK 02/00 Q0997

EXPIRED METARs :
  • 181720Z 26009KT CAVOK 02/00 Q0997
  • 181650Z 25009KT 9999 FEW014 02/01 Q0997
  • 181620Z 25009KT 9999 FEW014 02/01 Q0996
  • 181550Z 25010KT 9999 SCT008 02/00 Q0996
  • 181520Z 26007KT 9999 FEW008 02/01 Q0996

TAF TAF EGPH
Valid from the 18 at 18:00 until the 19 at 18:00 UTC


181651Z 1818/1918 25009KT 9999 SCT020
PROB30
TEMPO 1818/1903 6000 -SHSNRA BKN009
TEMPO 1903/1918 2000 SHSN BKN006
PROB30
TEMPO 1906/1916 1400 +SHSN BKN003
ATIS : +44 131 339 2823
No reported NOTAMs for that airfield.



MET'MAP, your aeronautical weather chart ! - Copyright ORBIFLY December 2007 - Disclaimer

ORBIFLY MET'MAP TEAM :

Programming & Development : Alexandra Zaïnal
Concept & Development : Baudouin d'Aumeries
Co-Development & Prog : Marc-Olivier Méhu
Technical & hardware support : Manuel Goepfert

Contact : metmap@orbifly.com




SOURCES & CREDITS :

   NOAA